Lawndale, North Carolina
Current Conditions -  °F | °C
As of 2:15 PM on Saturday 27 Dec 2014 (Local Time) from KEHO Reporting Station
Clear Clear  
Wind Chill: 62°   Ceiling: Unl
Heat Index: 62°   Visibility: 10mi
Dew Point: 32°   Wind: 7mph
Humidity: 32%   Direction: 170°S
Pressure: 30.2"   Gusts: NA
Location:  35.41°N, 81.56°W
Report Text: KEHO 271915Z AUTO 17006KT 10SM CLR 17/00 A3020 RMK AO2 T01681001
Loading
Personal Weather Stations






























Interactive Weather Map New forecast layout! Learn more

10-Day Weather Forecast

Advertisements
Track Severe Weather on mobile